createdAt,value
2018-06-03T00:02:02.849Z,14.90
2018-06-03T00:04:30.329Z,14.80
2018-06-03T00:06:57.859Z,14.80
2018-06-03T00:09:25.357Z,14.80
2018-06-03T00:11:53.280Z,14.90
2018-06-03T00:14:20.787Z,14.90
2018-06-03T00:16:48.674Z,14.90
2018-06-03T00:19:16.174Z,14.90
2018-06-03T00:21:43.684Z,14.90
2018-06-03T00:24:11.323Z,14.90
2018-06-03T00:26:38.847Z,14.90
2018-06-03T00:29:06.415Z,14.90
2018-06-03T00:31:33.940Z,14.90
2018-06-03T00:34:01.541Z,14.90
2018-06-03T00:36:41.238Z,14.80
2018-06-03T00:39:08.781Z,14.80
2018-06-03T00:41:36.746Z,14.80
2018-06-03T00:44:04.245Z,14.80
2018-06-03T00:46:31.816Z,14.80
2018-06-03T00:48:59.316Z,14.80
2018-06-03T00:51:26.825Z,14.80
2018-06-03T00:53:54.322Z,14.70
2018-06-03T00:56:34.010Z,14.80
2018-06-03T00:59:01.497Z,14.80
2018-06-03T01:01:28.998Z,14.80
2018-06-03T01:03:56.500Z,14.90
2018-06-03T01:06:24.013Z,14.90
2018-06-03T01:08:51.819Z,15.00
2018-06-03T01:11:19.569Z,15.10
2018-06-03T01:13:47.160Z,15.20
2018-06-03T01:16:14.664Z,15.30
2018-06-03T01:18:42.179Z,15.30
2018-06-03T01:21:09.666Z,15.30
2018-06-03T01:23:37.173Z,15.40
2018-06-03T01:26:04.658Z,15.40
2018-06-03T01:28:32.565Z,15.40
2018-06-03T01:31:00.059Z,15.40
2018-06-03T01:33:27.541Z,15.30
2018-06-03T01:35:55.472Z,15.20
2018-06-03T01:38:22.956Z,15.20
2018-06-03T01:40:50.528Z,15.10
2018-06-03T01:43:18.538Z,15.20
2018-06-03T01:45:46.039Z,15.30
2018-06-03T01:48:13.544Z,15.40
2018-06-03T01:50:41.056Z,15.40
2018-06-03T01:53:08.550Z,15.50
2018-06-03T01:55:36.076Z,15.50
2018-06-03T01:58:03.972Z,15.40
2018-06-03T02:00:31.512Z,15.40
2018-06-03T02:02:59.410Z,15.30
2018-06-03T02:05:26.917Z,15.40
2018-06-03T02:07:54.397Z,15.30
2018-06-03T02:10:22.317Z,15.30
2018-06-03T02:12:49.813Z,15.30
2018-06-03T02:15:17.693Z,15.30
2018-06-03T02:17:45.596Z,15.30
2018-06-03T02:20:13.104Z,15.30
2018-06-03T02:22:41.028Z,15.30
2018-06-03T02:25:08.528Z,15.30
2018-06-03T02:27:36.451Z,15.40
2018-06-03T02:30:03.977Z,15.40
2018-06-03T02:32:31.488Z,15.40
2018-06-03T02:34:58.973Z,15.40
2018-06-03T02:37:26.882Z,15.40
2018-06-03T02:39:54.388Z,15.40
2018-06-03T02:42:22.296Z,15.50
2018-06-03T02:44:49.796Z,15.50
2018-06-03T02:47:17.448Z,15.40
2018-06-03T02:49:45.390Z,15.50
2018-06-03T02:52:12.904Z,15.50
2018-06-03T02:54:40.400Z,15.50
2018-06-03T02:57:07.932Z,15.50
2018-06-03T02:59:35.522Z,15.50
2018-06-03T03:02:03.255Z,15.60
2018-06-03T03:04:42.724Z,15.60
2018-06-03T03:07:10.212Z,15.60
2018-06-03T03:09:37.709Z,15.70
2018-06-03T03:12:05.187Z,15.80
2018-06-03T03:14:33.174Z,15.80
2018-06-03T03:17:00.741Z,15.70
2018-06-03T03:19:28.269Z,15.70
2018-06-03T03:21:55.765Z,15.70
2018-06-03T03:24:23.268Z,15.80
2018-06-03T03:26:50.777Z,15.80
2018-06-03T03:29:18.285Z,15.80
2018-06-03T03:31:45.784Z,15.80
2018-06-03T03:34:13.289Z,15.80
2018-06-03T03:36:41.207Z,15.80
2018-06-03T03:39:08.731Z,15.80
2018-06-03T03:41:36.252Z,15.80
2018-06-03T03:44:03.767Z,15.80
2018-06-03T03:46:31.281Z,15.80
2018-06-03T03:48:59.189Z,15.70
2018-06-03T03:51:26.696Z,15.70
2018-06-03T03:53:54.606Z,15.70
2018-06-03T03:56:22.154Z,15.70
2018-06-03T03:58:49.655Z,15.70
2018-06-03T04:01:17.156Z,15.70
2018-06-03T04:03:44.682Z,15.70
2018-06-03T04:06:12.201Z,15.80
2018-06-03T04:09:09.481Z,15.90
2018-06-03T04:11:37.904Z,15.90
2018-06-03T04:14:06.285Z,15.90
2018-06-03T04:16:34.683Z,15.90
2018-06-03T04:19:03.093Z,15.90
2018-06-03T04:21:31.584Z,15.90
2018-06-03T04:24:00.049Z,16.00
2018-06-03T04:26:28.536Z,16.10
2018-06-03T04:28:56.990Z,16.10
2018-06-03T04:31:25.366Z,16.20
2018-06-03T04:33:53.788Z,16.20
2018-06-03T04:36:22.193Z,16.30
2018-06-03T04:38:50.618Z,16.30
2018-06-03T04:41:19.383Z,16.30
2018-06-03T04:43:47.745Z,16.30
2018-06-03T04:46:16.582Z,16.40
2018-06-03T04:48:45.476Z,16.50
2018-06-03T04:51:13.966Z,16.60
2018-06-03T04:53:42.758Z,16.70
2018-06-03T04:56:13.495Z,16.80
2018-06-03T04:58:44.034Z,16.80
2018-06-03T05:01:12.802Z,16.90
2018-06-03T05:03:41.292Z,16.90
2018-06-03T05:06:09.957Z,16.90
2018-06-03T05:08:40.029Z,17.00
2018-06-03T05:11:09.728Z,17.00
2018-06-03T05:13:38.432Z,17.10
2018-06-03T05:16:08.526Z,17.20
2018-06-03T05:18:37.396Z,17.30
2018-06-03T05:21:06.231Z,17.40
2018-06-03T05:23:34.777Z,17.50
2018-06-03T05:26:03.341Z,17.60
2018-06-03T05:28:31.774Z,17.70
2018-06-03T05:31:00.162Z,17.80
2018-06-03T05:33:28.559Z,17.70
2018-06-03T05:35:57.063Z,17.70
2018-06-03T05:38:25.481Z,17.70
2018-06-03T05:40:53.919Z,17.80
2018-06-03T05:43:22.335Z,17.90
2018-06-03T05:45:50.727Z,18.00
2018-06-03T05:48:19.171Z,18.10
2018-06-03T05:50:47.625Z,18.20
2018-06-03T05:53:16.057Z,18.30
2018-06-03T05:55:44.453Z,18.30
2018-06-03T05:58:12.901Z,18.40
2018-06-03T06:00:41.298Z,18.50
2018-06-03T06:03:09.736Z,18.70
2018-06-03T06:05:38.160Z,18.80
2018-06-03T06:08:06.539Z,18.90
2018-06-03T06:10:34.942Z,19.00
2018-06-03T06:13:03.501Z,19.20
2018-06-03T06:15:31.926Z,19.30
2018-06-03T06:18:00.359Z,19.40
2018-06-03T06:20:28.838Z,19.50
2018-06-03T06:22:57.266Z,19.70
2018-06-03T06:25:25.649Z,19.80
2018-06-03T06:27:54.061Z,20.00
2018-06-03T06:30:22.494Z,20.10
2018-06-03T06:32:50.882Z,20.10
2018-06-03T06:35:19.267Z,20.20
2018-06-03T06:37:47.659Z,20.00
2018-06-03T06:40:16.055Z,20.00
2018-06-03T06:42:44.457Z,20.10
2018-06-03T06:45:12.889Z,20.30
2018-06-03T06:47:41.306Z,20.40
2018-06-03T06:50:09.788Z,20.60
2018-06-03T06:52:38.291Z,20.70
2018-06-03T06:55:06.770Z,20.90
2018-06-03T06:57:35.219Z,21.00
2018-06-03T07:00:03.693Z,21.10
2018-06-03T07:02:32.207Z,21.30
2018-06-03T07:05:00.628Z,21.40
2018-06-03T07:07:29.105Z,21.50
2018-06-03T07:09:57.600Z,21.70
2018-06-03T07:12:26.153Z,21.70
2018-06-03T07:14:54.875Z,21.80
2018-06-03T07:17:23.579Z,21.90
2018-06-03T07:19:52.176Z,22.10
2018-06-03T07:22:20.779Z,22.30
2018-06-03T07:24:49.287Z,22.40
2018-06-03T07:27:17.955Z,22.50
2018-06-03T07:29:46.408Z,22.60
2018-06-03T07:32:14.930Z,22.50
2018-06-03T07:34:43.378Z,22.40
2018-06-03T07:37:12.076Z,22.30
2018-06-03T07:39:40.842Z,22.20
2018-06-03T07:42:10.180Z,22.20
2018-06-03T07:44:38.631Z,22.00
2018-06-03T07:47:07.216Z,22.10
2018-06-03T07:49:35.640Z,22.10
2018-06-03T07:52:04.042Z,22.10
2018-06-03T07:54:33.117Z,21.90
2018-06-03T07:57:01.601Z,21.80
2018-06-03T07:59:30.093Z,21.60
2018-06-03T08:01:58.570Z,21.60
2018-06-03T08:04:27.320Z,21.60
2018-06-03T08:06:55.747Z,21.40
2018-06-03T08:09:24.163Z,21.50
2018-06-03T08:11:52.540Z,21.50
2018-06-03T08:14:21.056Z,21.40
2018-06-03T08:16:50.448Z,21.50
2018-06-03T08:19:18.835Z,21.50
2018-06-03T08:21:47.267Z,21.60
2018-06-03T08:24:15.835Z,21.90
2018-06-03T08:26:44.217Z,22.40
2018-06-03T08:29:12.601Z,22.70
2018-06-03T08:31:41.029Z,22.80
2018-06-03T08:34:09.421Z,23.00
2018-06-03T08:36:37.836Z,23.20
2018-06-03T08:39:07.008Z,23.40
2018-06-03T08:41:35.436Z,23.60
2018-06-03T08:44:03.921Z,23.60
2018-06-03T08:46:32.396Z,23.70
2018-06-03T08:49:00.917Z,23.90
2018-06-03T08:51:29.390Z,24.20
2018-06-03T08:53:57.910Z,24.40
2018-06-03T08:56:26.313Z,24.50
2018-06-03T08:58:54.698Z,24.40
2018-06-03T09:01:23.214Z,24.30
2018-06-03T09:03:51.656Z,24.30
2018-06-03T09:06:20.078Z,24.00
2018-06-03T09:08:48.535Z,23.90
2018-06-03T09:11:17.042Z,23.60
2018-06-03T09:13:46.393Z,23.50
2018-06-03T09:16:14.817Z,23.60
2018-06-03T09:18:43.255Z,23.10
2018-06-03T09:21:11.683Z,22.80
2018-06-03T09:23:40.089Z,22.70
2018-06-03T09:26:08.646Z,22.50
2018-06-03T09:28:37.164Z,22.40
2018-06-03T09:31:06.738Z,22.20
2018-06-03T09:33:36.517Z,22.20
2018-06-03T09:36:05.086Z,22.20
2018-06-03T09:38:38.105Z,22.30
2018-06-03T09:41:06.518Z,22.40
2018-06-03T09:43:34.905Z,22.60
2018-06-03T09:46:03.318Z,22.60
2018-06-03T09:48:31.744Z,22.80
2018-06-03T09:51:00.116Z,23.10
2018-06-03T09:53:28.518Z,23.60
2018-06-03T09:55:56.978Z,24.10
2018-06-03T09:58:25.354Z,25.00
2018-06-03T10:00:53.845Z,25.60
2018-06-03T10:03:22.262Z,25.90
2018-06-03T10:05:50.654Z,26.20
2018-06-03T10:08:19.124Z,25.90
2018-06-03T10:10:47.572Z,25.70
2018-06-03T10:13:16.745Z,25.80
2018-06-03T10:15:45.127Z,25.80
2018-06-03T10:18:13.528Z,25.50
2018-06-03T10:20:41.932Z,24.90
2018-06-03T10:23:10.377Z,24.70
2018-06-03T10:25:39.253Z,24.10
2018-06-03T10:28:07.678Z,24.00
2018-06-03T10:30:36.086Z,23.90
2018-06-03T10:33:04.513Z,23.80
2018-06-03T10:35:32.952Z,23.70
2018-06-03T10:38:01.345Z,23.50
2018-06-03T10:40:29.699Z,23.40
2018-06-03T10:42:58.106Z,23.40
2018-06-03T10:45:26.503Z,23.40
2018-06-03T10:47:54.886Z,23.30
2018-06-03T10:50:23.317Z,23.50
2018-06-03T10:52:51.797Z,23.50
2018-06-03T10:55:20.395Z,23.60
2018-06-03T10:57:48.831Z,23.70
2018-06-03T11:00:17.236Z,23.90
2018-06-03T11:02:45.677Z,24.00
2018-06-03T11:05:14.737Z,24.20
2018-06-03T11:07:43.235Z,24.30
2018-06-03T11:10:11.625Z,24.20
2018-06-03T11:12:40.014Z,24.30
2018-06-03T11:15:08.393Z,24.40
2018-06-03T11:17:36.815Z,24.40
2018-06-03T11:20:07.129Z,24.40
2018-06-03T11:22:35.711Z,24.40
2018-06-03T11:25:04.177Z,24.40
2018-06-03T11:27:32.712Z,24.40
2018-06-03T11:30:01.145Z,24.50
2018-06-03T11:32:29.548Z,24.40
2018-06-03T11:34:58.002Z,24.30
2018-06-03T11:37:26.427Z,24.10
2018-06-03T11:39:54.973Z,23.90
2018-06-03T11:42:23.458Z,24.00
2018-06-03T11:44:51.908Z,24.00
2018-06-03T11:48:23.189Z,24.00
2018-06-03T11:50:51.831Z,23.90
2018-06-03T11:53:20.274Z,24.10
2018-06-03T11:55:49.128Z,24.40
2018-06-03T11:59:26.696Z,24.70
2018-06-03T12:01:55.251Z,25.20
2018-06-03T12:04:23.669Z,25.70
2018-06-03T12:06:52.078Z,25.70
2018-06-03T12:09:20.493Z,25.80
2018-06-03T12:11:48.932Z,25.90
2018-06-03T12:14:17.341Z,25.90
2018-06-03T12:16:45.782Z,25.80
2018-06-03T12:19:14.288Z,25.90
2018-06-03T12:21:42.780Z,25.90
2018-06-03T12:24:11.198Z,25.70
2018-06-03T12:26:39.628Z,25.50
2018-06-03T12:29:08.077Z,25.40
2018-06-03T12:31:36.590Z,25.40
2018-06-03T12:34:05.072Z,25.40
2018-06-03T12:36:33.473Z,25.40
2018-06-03T12:39:04.841Z,25.40
2018-06-03T12:41:33.223Z,25.20
2018-06-03T12:44:01.687Z,25.10
2018-06-03T12:46:30.120Z,25.00
2018-06-03T12:48:58.548Z,25.00
2018-06-03T12:51:27.028Z,25.00
2018-06-03T12:53:55.445Z,24.90
2018-06-03T12:56:23.873Z,24.90
2018-06-03T12:58:52.264Z,24.90
2018-06-03T13:01:20.739Z,24.90
2018-06-03T13:03:49.117Z,24.80
2018-06-03T13:06:17.602Z,24.80
2018-06-03T13:08:45.985Z,24.70
2018-06-03T13:11:14.356Z,24.60
2018-06-03T13:13:42.807Z,24.60
2018-06-03T13:16:11.208Z,24.60
2018-06-03T13:18:42.127Z,24.60
2018-06-03T13:21:10.647Z,24.60
2018-06-03T13:23:40.337Z,24.70
2018-06-03T13:26:09.780Z,24.70
2018-06-03T13:28:38.584Z,24.80
2018-06-03T13:31:07.020Z,24.70
2018-06-03T13:33:38.372Z,24.50
2018-06-03T13:36:06.841Z,24.40
2018-06-03T13:38:35.246Z,24.20
2018-06-03T13:43:32.342Z,24.20
2018-06-03T13:46:00.793Z,24.30
2018-06-03T13:48:29.392Z,24.40
2018-06-03T13:50:57.861Z,24.60
2018-06-03T13:53:26.512Z,24.70
2018-06-03T13:55:55.041Z,24.70
2018-06-03T13:58:23.929Z,24.60
2018-06-03T14:00:52.376Z,24.70
2018-06-03T14:03:21.092Z,24.80
2018-06-03T14:05:49.569Z,24.90
2018-06-03T14:08:18.170Z,25.00
2018-06-03T14:10:46.737Z,25.20
2018-06-03T14:13:15.185Z,25.50
2018-06-03T14:15:43.740Z,25.80
2018-06-03T14:18:12.358Z,26.10
2018-06-03T14:20:40.945Z,26.30
2018-06-03T14:23:09.451Z,26.50
2018-06-03T14:25:38.105Z,26.60
2018-06-03T14:28:06.689Z,26.70
2018-06-03T14:30:35.152Z,26.50
2018-06-03T14:33:03.620Z,26.60
2018-06-03T14:35:38.453Z,26.50
2018-06-03T14:38:10.596Z,26.60
2018-06-03T14:40:39.943Z,26.80
2018-06-03T14:43:08.559Z,26.90
2018-06-03T14:45:37.165Z,27.10
2018-06-03T14:48:06.176Z,27.40
2018-06-03T14:50:34.985Z,27.60
2018-06-03T14:53:07.509Z,27.80
2018-06-03T14:55:36.823Z,27.90
2018-06-03T14:58:05.404Z,27.90
2018-06-03T15:00:34.064Z,28.00
2018-06-03T15:03:05.075Z,28.10
2018-06-03T15:05:33.889Z,27.80
2018-06-03T15:08:05.349Z,28.00
2018-06-03T15:10:33.897Z,28.10
2018-06-03T15:13:02.481Z,28.10
2018-06-03T15:15:31.453Z,28.20
2018-06-03T15:18:00.209Z,28.20
2018-06-03T15:20:28.804Z,28.20
2018-06-03T15:22:57.473Z,28.10
2018-06-03T15:25:25.906Z,27.90
2018-06-03T15:30:22.805Z,27.90
2018-06-03T15:32:51.260Z,27.90
2018-06-03T15:35:20.248Z,27.90
2018-06-03T15:37:49.319Z,27.80
2018-06-03T15:40:18.856Z,27.90
2018-06-03T15:42:47.481Z,27.80
2018-06-03T15:45:15.949Z,27.60
2018-06-03T15:47:44.468Z,27.50
2018-06-03T15:50:12.877Z,27.30
2018-06-03T15:52:41.299Z,27.30
2018-06-03T15:55:09.857Z,27.30
2018-06-03T15:57:38.381Z,27.20
2018-06-03T16:00:06.924Z,27.10
2018-06-03T16:02:35.413Z,27.20
2018-06-03T16:05:03.887Z,27.30
2018-06-03T16:07:32.353Z,27.30
2018-06-03T16:10:00.768Z,27.40
2018-06-03T16:12:30.212Z,27.30
2018-06-03T16:14:58.628Z,27.30
2018-06-03T16:17:27.060Z,27.30
2018-06-03T16:19:55.958Z,27.20
2018-06-03T16:22:24.458Z,27.10
2018-06-03T16:24:52.873Z,27.00
2018-06-03T16:27:21.397Z,26.80
2018-06-03T16:29:49.821Z,26.90
2018-06-03T16:32:18.311Z,26.90
2018-06-03T16:34:46.801Z,26.90
2018-06-03T16:37:15.188Z,26.70
2018-06-03T16:39:43.691Z,26.50
2018-06-03T16:42:12.506Z,26.30
2018-06-03T16:44:41.936Z,26.30
2018-06-03T16:47:10.490Z,26.20
2018-06-03T16:49:38.879Z,26.20
2018-06-03T16:52:07.360Z,26.10
2018-06-03T16:54:35.925Z,25.90
2018-06-03T16:57:04.397Z,25.60
2018-06-03T16:59:44.313Z,25.40
2018-06-03T17:02:12.825Z,25.10
2018-06-03T17:04:41.374Z,25.00
2018-06-03T17:07:10.361Z,24.90
2018-06-03T17:12:07.084Z,24.70
2018-06-03T17:14:35.892Z,24.70
2018-06-03T17:17:05.393Z,24.50
2018-06-03T17:19:34.263Z,24.40
2018-06-03T17:22:03.039Z,24.40
2018-06-03T17:24:31.554Z,24.40
2018-06-03T17:27:00.015Z,24.40
2018-06-03T17:29:28.545Z,24.30
2018-06-03T17:31:57.034Z,24.30
2018-06-03T17:34:27.179Z,24.30
2018-06-03T17:36:56.562Z,24.20
2018-06-03T17:39:25.034Z,24.10
2018-06-03T17:41:53.515Z,24.00
2018-06-03T17:44:21.957Z,24.00
2018-06-03T17:46:50.467Z,23.90
2018-06-03T17:49:19.010Z,23.90
2018-06-03T17:51:47.573Z,23.80
2018-06-03T17:54:16.493Z,23.80
2018-06-03T17:56:45.169Z,23.70
2018-06-03T17:59:13.684Z,23.70
2018-06-03T18:01:42.261Z,23.60
2018-06-03T18:04:10.731Z,23.60
2018-06-03T18:06:39.321Z,23.60
2018-06-03T18:09:08.685Z,23.60
2018-06-03T18:11:37.159Z,23.50
2018-06-03T18:14:05.716Z,23.50
2018-06-03T18:16:35.975Z,23.40
2018-06-03T18:19:04.774Z,23.40
2018-06-03T18:24:27.774Z,23.30
2018-06-03T18:26:58.904Z,23.30
2018-06-03T18:29:27.566Z,23.20
2018-06-03T18:31:56.686Z,23.20
2018-06-03T18:34:26.013Z,23.10
2018-06-03T18:36:56.996Z,23.00
2018-06-03T18:39:27.853Z,23.00
2018-06-03T18:41:58.727Z,22.90
2018-06-03T18:44:27.404Z,22.90
2018-06-03T18:46:56.235Z,22.80
2018-06-03T18:49:24.702Z,22.70
2018-06-03T18:51:59.894Z,22.60
2018-06-03T18:54:40.172Z,22.50
2018-06-03T18:57:09.677Z,22.40
2018-06-03T18:59:40.993Z,22.30
2018-06-03T19:02:09.512Z,22.30
2018-06-03T19:04:37.961Z,22.20
2018-06-03T19:07:06.382Z,22.10
2018-06-03T19:09:36.365Z,22.00
2018-06-03T19:12:05.496Z,21.90
2018-06-03T19:14:33.887Z,21.80
2018-06-03T19:17:02.310Z,21.70
2018-06-03T19:19:30.697Z,21.60
2018-06-03T19:21:59.151Z,21.40
2018-06-03T19:24:27.657Z,21.40
2018-06-03T19:26:56.108Z,21.30
2018-06-03T19:29:25.486Z,21.20
2018-06-03T19:31:54.291Z,21.10
2018-06-03T19:34:22.772Z,21.00
2018-06-03T19:36:51.328Z,20.90
2018-06-03T19:39:19.783Z,20.80
2018-06-03T19:41:49.483Z,20.70
2018-06-03T19:44:18.415Z,20.60
2018-06-03T19:46:47.870Z,20.50
2018-06-03T19:49:18.276Z,20.40
2018-06-03T19:51:46.922Z,20.30
2018-06-03T19:54:15.871Z,20.30
2018-06-03T19:56:44.684Z,20.20
2018-06-03T19:59:13.568Z,20.10
2018-06-03T20:01:42.325Z,20.00
2018-06-03T20:04:15.713Z,19.90
2018-06-03T20:06:45.170Z,19.80
2018-06-03T20:09:13.669Z,19.70
2018-06-03T20:11:42.061Z,19.60
2018-06-03T20:14:10.600Z,19.50
2018-06-03T20:19:07.986Z,19.30
2018-06-03T20:21:36.702Z,19.30
2018-06-03T20:24:05.967Z,19.20
2018-06-03T20:26:36.145Z,19.10
2018-06-03T20:29:04.606Z,19.00
2018-06-03T20:31:33.112Z,19.00
2018-06-03T20:34:02.154Z,18.80
2018-06-03T20:36:30.642Z,18.70
2018-06-03T20:38:59.067Z,18.70
2018-06-03T20:41:27.536Z,18.60
2018-06-03T20:43:56.071Z,18.50
2018-06-03T20:46:24.506Z,18.40
2018-06-03T20:48:53.062Z,18.40
2018-06-03T20:51:21.594Z,18.30
2018-06-03T20:53:50.085Z,18.20
2018-06-03T20:56:18.552Z,18.20
2018-06-03T20:58:47.033Z,18.10
2018-06-03T21:01:15.456Z,18.00
2018-06-03T21:03:43.927Z,17.90
2018-06-03T21:06:12.486Z,17.90
2018-06-03T21:08:41.000Z,17.80
2018-06-03T21:11:09.440Z,17.70
2018-06-03T21:13:37.864Z,17.70
2018-06-03T21:16:06.385Z,17.60
2018-06-03T21:18:34.833Z,17.50
2018-06-03T21:21:03.302Z,17.50
2018-06-03T21:23:31.720Z,17.40
2018-06-03T21:26:00.159Z,17.40
2018-06-03T21:28:28.593Z,17.40
2018-06-03T21:30:57.280Z,17.30
2018-06-03T21:33:25.688Z,17.20
2018-06-03T21:35:54.165Z,17.20
2018-06-03T21:38:22.655Z,17.10
2018-06-03T21:40:51.096Z,17.00
2018-06-03T21:43:19.521Z,17.00
2018-06-03T21:45:48.087Z,16.90
2018-06-03T21:48:16.521Z,16.90
2018-06-03T21:50:44.965Z,16.90
2018-06-03T21:53:13.393Z,16.80
2018-06-03T21:55:41.873Z,16.70
2018-06-03T21:58:10.436Z,16.70
2018-06-03T22:00:38.901Z,16.60
2018-06-03T22:03:07.387Z,16.60
2018-06-03T22:05:35.899Z,16.50
2018-06-03T22:08:04.386Z,16.50
2018-06-03T22:10:32.823Z,16.40
2018-06-03T22:13:01.265Z,16.40
2018-06-03T22:15:29.812Z,16.40
2018-06-03T22:17:58.271Z,16.40
2018-06-03T22:20:26.678Z,16.30
2018-06-03T22:22:55.131Z,16.30
2018-06-03T22:25:23.574Z,16.20
2018-06-03T22:27:51.996Z,16.20
2018-06-03T22:30:20.558Z,16.10
2018-06-03T22:32:48.953Z,16.10
2018-06-03T22:35:17.429Z,16.10
2018-06-03T22:37:45.881Z,16.00
2018-06-03T22:40:14.270Z,16.00
2018-06-03T22:42:42.820Z,16.00
2018-06-03T22:45:11.437Z,15.90
2018-06-03T22:47:39.861Z,15.90
2018-06-03T22:50:08.385Z,15.90
2018-06-03T22:52:36.754Z,15.80
2018-06-03T22:55:05.194Z,15.80
2018-06-03T23:00:07.303Z,15.70
2018-06-03T23:02:35.720Z,15.70
2018-06-03T23:05:04.363Z,15.70
2018-06-03T23:07:33.584Z,15.60
2018-06-03T23:10:02.050Z,15.60
2018-06-03T23:12:30.545Z,15.50
2018-06-03T23:14:58.991Z,15.50
2018-06-03T23:17:27.396Z,15.40
2018-06-03T23:19:55.793Z,15.40
2018-06-03T23:22:24.280Z,15.40
2018-06-03T23:24:52.773Z,15.30
2018-06-03T23:27:21.819Z,15.30
2018-06-03T23:29:50.235Z,15.20
2018-06-03T23:32:18.656Z,15.20
2018-06-03T23:34:47.100Z,15.10
2018-06-03T23:37:15.538Z,15.10
2018-06-03T23:39:44.015Z,15.00
2018-06-03T23:42:12.443Z,15.00
2018-06-03T23:44:40.842Z,15.00
2018-06-03T23:47:09.838Z,14.90
2018-06-03T23:49:38.242Z,14.90
2018-06-03T23:52:06.755Z,14.90
2018-06-03T23:54:35.241Z,14.90
2018-06-03T23:57:03.690Z,14.80
2018-06-03T23:59:32.113Z,14.80
